MTF weather

Mata Larga Airport
El Carmen, Campeche, Mexico

Public forecast

Using degrees Celsius for public forecast. Weather courtesy of forecast.io.

Closest aviation weather report (METAR) to Mata Larga Airport

Closest report is Ciudad del Carmen International Airport, 28.0 nm (51.9 km) WNW. Retrieved 2019/12/07 12:48 UTC (1 hour ago):

MMCE 071248Z 07005KT 7SM SCT025 23/21 A3013 RMK 8/500 AC CI

Closest aviation forecast (TAF) to Mata Larga Airport

Forecast is more than 6 hours old.

Closest forecast is Ciudad del Carmen International Airport, 28.0 nm (51.9 km) WNW. Retrieved 2019/12/07 06:00 UTC (8 hours ago):

TAF MMCE 070459Z 0706/0806 05010KT 6SM HZ SCT020 BKN080 FM071200 12012KT 6SM HZ SCT020 SCT080 TEMPO 0712/0715 BKN015 FM071800 08010KT 6SM HZ SCT030 FM080300 06005KT 6SM HZ SCT020